SANT/TUC METAR and TAF weather

Enter ICAO airport designator
Station Type Date Time Source
SANT METAR 2023/01/30 11:00 UTC NOAA

SANT 301100Z VRB02KT 6000 -RA BKN003 OVC050 21/21 Q1010 RMK PP003


Station Type Date Time Source
SANT Decoded METAR 2023/01/30 11:00 UTC NOAA

Tucuman Aerodrome, Argentina (SANT) 26-51S 065-06W 450M
Jan 30, 2023 - 06:00 AM EST / 2023.01.30 1100 UTC
Wind: Variable at 2 MPH (2 KT):0
Visibility: 3 mile(s):0
Sky conditions: overcast
Weather: light rain
Temperature: 69 F (21 C)
Dew Point: 69 F (21 C)
Relative Humidity: 100%
Pressure (altimeter): 29.83 in. Hg (1010 hPa)
ob: SANT 301100Z VRB02KT 6000 -RA BKN003 OVC050 21/21 Q1010 RMK PP003
cycle: 11

Station Type Date Time Source
SANT TAF 2023/01/30 12:18 UTC NOAA

TAF TAF SANT 301100Z 3012/3112 18005KT 4000 DZ SCT005 OVC050 TX30/3018Z TN18/3110Z
BECMG 3021/3100 23010KT 9999 SCT035 BKN050
FM310900 VRB03KT 8000 DZ SCT010 BKN045

Example: see airport list